createdAt,value
2017-09-28T00:00:37.079Z,95131.69
2017-09-28T00:03:05.701Z,95139.69
2017-09-28T00:05:34.815Z,95136.64
2017-09-28T00:08:02.768Z,95135.41
2017-09-28T00:10:30.733Z,95134.20
2017-09-28T00:12:58.627Z,95143.68
2017-09-28T00:15:26.641Z,95143.94
2017-09-28T00:17:54.536Z,95141.20
2017-09-28T00:20:22.488Z,95140.33
2017-09-28T00:22:50.366Z,95143.54
2017-09-28T00:25:18.237Z,95142.31
2017-09-28T00:27:46.185Z,95148.03
2017-09-28T00:30:14.083Z,95146.64
2017-09-28T00:32:42.095Z,95143.44
2017-09-28T00:35:10.076Z,95148.75
2017-09-28T00:37:38.055Z,95142.59
2017-09-28T00:40:06.954Z,95158.69
2017-09-28T00:42:34.805Z,95150.38
2017-09-28T00:45:02.605Z,95158.70
2017-09-28T00:47:30.503Z,95158.48
2017-09-28T00:49:58.488Z,95160.45
2017-09-28T00:52:26.307Z,95157.30
2017-09-28T00:54:54.060Z,95156.48
2017-09-28T00:57:21.785Z,95155.95
2017-09-28T00:59:49.814Z,95161.58
2017-09-28T01:02:17.728Z,95163.40
2017-09-28T01:04:45.784Z,95155.37
2017-09-28T01:07:13.742Z,95153.67
2017-09-28T01:09:41.594Z,95160.03
2017-09-28T01:12:09.672Z,95161.27
2017-09-28T01:14:37.573Z,95160.59
2017-09-28T01:17:05.652Z,95158.85
2017-09-28T01:19:33.518Z,95166.56
2017-09-28T01:22:01.296Z,95161.28
2017-09-28T01:24:29.397Z,95170.86
2017-09-28T01:26:57.393Z,95165.14
2017-09-28T01:29:25.220Z,95168.39
2017-09-28T01:31:53.057Z,95162.02
2017-09-28T01:34:20.902Z,95166.56
2017-09-28T01:36:48.867Z,95167.98
2017-09-28T01:39:16.731Z,95156.81
2017-09-28T01:41:44.605Z,95161.51
2017-09-28T01:44:12.492Z,95162.53
2017-09-28T01:46:40.442Z,95164.50
2017-09-28T01:49:08.455Z,95158.69
2017-09-28T01:51:36.198Z,95171.92
2017-09-28T01:54:04.210Z,95169.47
2017-09-28T01:56:32.098Z,95170.14
2017-09-28T01:59:00.049Z,95178.36
2017-09-28T02:01:27.812Z,95173.38
2017-09-28T02:03:55.707Z,95172.58
2017-09-28T02:06:23.689Z,95174.19
2017-09-28T02:08:51.628Z,95167.91
2017-09-28T02:11:19.561Z,95173.64
2017-09-28T02:13:47.444Z,95165.11
2017-09-28T02:16:15.379Z,95167.34
2017-09-28T02:18:43.277Z,95169.05
2017-09-28T02:21:11.022Z,95172.08
2017-09-28T02:23:38.852Z,95165.30
2017-09-28T02:26:07.605Z,95171.16
2017-09-28T02:28:35.525Z,95169.90
2017-09-28T02:31:03.311Z,95166.68
2017-09-28T02:33:31.233Z,95166.95
2017-09-28T02:35:59.159Z,95170.66
2017-09-28T02:38:27.162Z,95167.71
2017-09-28T02:40:55.115Z,95168.06
2017-09-28T02:43:22.799Z,95170.14
2017-09-28T02:45:50.705Z,95174.61
2017-09-28T02:48:18.692Z,95169.26
2017-09-28T02:50:46.647Z,95173.00
2017-09-28T02:53:14.603Z,95171.98
2017-09-28T02:55:42.601Z,95171.74
2017-09-28T02:58:10.867Z,95168.64
2017-09-28T03:00:38.771Z,95171.08
2017-09-28T03:03:06.748Z,95171.92
2017-09-28T03:05:34.619Z,95175.55
2017-09-28T03:08:02.574Z,95174.21
2017-09-28T03:10:30.562Z,95166.98
2017-09-28T03:12:58.252Z,95165.79
2017-09-28T03:15:26.077Z,95168.49
2017-09-28T03:17:54.033Z,95168.95
2017-09-28T03:20:22.069Z,95166.41
2017-09-28T03:22:50.119Z,95161.58
2017-09-28T03:25:18.082Z,95160.12
2017-09-28T03:27:46.025Z,95154.53
2017-09-28T03:30:13.943Z,95155.25
2017-09-28T03:32:41.728Z,95158.65
2017-09-28T03:35:09.523Z,95156.15
2017-09-28T03:37:37.209Z,95163.95
2017-09-28T03:40:05.764Z,95161.58
2017-09-28T03:42:33.715Z,95162.50
2017-09-28T03:45:01.759Z,95164.20
2017-09-28T03:47:29.733Z,95163.86
2017-09-28T03:49:57.772Z,95161.18
2017-09-28T03:52:25.708Z,95171.45
2017-09-28T03:54:53.658Z,95177.25
2017-09-28T03:57:21.644Z,95179.89
2017-09-28T03:59:49.535Z,95169.97
2017-09-28T04:02:17.419Z,95177.41
2017-09-28T04:04:45.334Z,95172.90
2017-09-28T04:07:13.366Z,95173.00
2017-09-28T04:09:41.250Z,95186.03
2017-09-28T04:12:09.292Z,95188.81
2017-09-28T04:14:37.242Z,95186.58
2017-09-28T04:17:05.208Z,95184.68
2017-09-28T04:19:33.161Z,95186.41
2017-09-28T04:22:01.080Z,95185.80
2017-09-28T04:24:28.998Z,95189.70
2017-09-28T04:26:56.882Z,95185.66
2017-09-28T04:29:24.868Z,95186.83
2017-09-28T04:31:52.765Z,95186.92
2017-09-28T04:34:21.004Z,95185.86
2017-09-28T04:36:48.881Z,95183.76
2017-09-28T04:39:16.567Z,95181.09
2017-09-28T04:41:44.272Z,95187.60
2017-09-28T04:44:12.100Z,95186.66
2017-09-28T04:46:40.424Z,95189.88
2017-09-28T04:49:09.409Z,95188.69
2017-09-28T04:51:37.160Z,95187.64
2017-09-28T04:54:04.991Z,95189.50
2017-09-28T04:56:32.665Z,95192.15
2017-09-28T04:59:00.401Z,95202.09
2017-09-28T05:01:29.111Z,95204.45
2017-09-28T05:03:56.816Z,95205.75
2017-09-28T05:06:24.692Z,95206.31
2017-09-28T05:08:52.384Z,95208.23
2017-09-28T05:11:20.106Z,95216.42
2017-09-28T05:13:48.409Z,95214.07
2017-09-28T05:16:16.099Z,95220.43
2017-09-28T05:18:44.041Z,95221.16
2017-09-28T05:21:11.738Z,95226.55
2017-09-28T05:23:39.447Z,95221.64
2017-09-28T05:26:07.156Z,95221.69
2017-09-28T05:28:34.861Z,95219.05
2017-09-28T05:31:02.701Z,95216.69
2017-09-28T05:33:30.414Z,95222.27
2017-09-28T05:35:58.153Z,95220.27
2017-09-28T05:38:25.943Z,95220.84
2017-09-28T05:40:53.763Z,95227.95
2017-09-28T05:43:21.530Z,95231.70
2017-09-28T05:45:49.318Z,95234.64
2017-09-28T05:48:17.149Z,95237.81
2017-09-28T05:50:44.943Z,95244.03
2017-09-28T05:53:12.764Z,95238.37
2017-09-28T05:55:40.685Z,95237.94
2017-09-28T05:58:08.348Z,95240.67
2017-09-28T06:00:36.166Z,95244.78
2017-09-28T06:03:03.935Z,95250.10
2017-09-28T06:05:32.468Z,95249.16
2017-09-28T06:08:00.217Z,95253.16
2017-09-28T06:10:27.934Z,95256.36
2017-09-28T06:12:55.642Z,95255.24
2017-09-28T06:15:23.360Z,95257.34
2017-09-28T06:17:51.049Z,95253.64
2017-09-28T06:20:19.814Z,95255.44
2017-09-28T06:22:47.791Z,95260.00
2017-09-28T06:25:15.487Z,95257.59
2017-09-28T06:27:43.179Z,95258.04
2017-09-28T06:30:10.934Z,95260.77
2017-09-28T06:32:38.690Z,95267.81
2017-09-28T06:35:06.502Z,95269.20
2017-09-28T06:37:34.214Z,95271.09
2017-09-28T06:40:02.014Z,95269.18
2017-09-28T06:42:29.707Z,95266.22
2017-09-28T06:44:57.446Z,95264.69
2017-09-28T06:47:25.237Z,95265.19
2017-09-28T06:49:52.963Z,95269.16
2017-09-28T06:52:20.770Z,95269.96
2017-09-28T06:54:48.516Z,95269.58
2017-09-28T06:57:16.314Z,95268.66
2017-09-28T06:59:44.013Z,95268.77
2017-09-28T07:02:11.721Z,95262.64
2017-09-28T07:04:39.489Z,95263.53
2017-09-28T07:07:07.228Z,95258.09
2017-09-28T07:09:34.938Z,95264.28
2017-09-28T07:12:02.652Z,95265.50
2017-09-28T07:14:30.749Z,95258.08
2017-09-28T07:16:58.541Z,95259.09
2017-09-28T07:19:26.228Z,95260.44
2017-09-28T07:21:53.986Z,95256.72
2017-09-28T07:24:21.879Z,95261.57
2017-09-28T07:26:49.569Z,95261.28
2017-09-28T07:29:17.323Z,95263.09
2017-09-28T07:31:45.084Z,95259.88
2017-09-28T07:34:12.902Z,95258.34
2017-09-28T07:36:40.607Z,95255.70
2017-09-28T07:39:08.334Z,95258.47
2017-09-28T07:41:36.108Z,95260.65
2017-09-28T07:44:03.867Z,95258.11
2017-09-28T07:46:31.610Z,95250.04
2017-09-28T07:48:59.387Z,95254.04
2017-09-28T07:51:27.202Z,95253.67
2017-09-28T07:53:55.984Z,95250.78
2017-09-28T07:56:23.734Z,95249.50
2017-09-28T07:58:51.665Z,95248.16
2017-09-28T08:01:19.365Z,95236.94
2017-09-28T08:03:47.043Z,95240.78
2017-09-28T08:06:14.838Z,95240.36
2017-09-28T08:08:42.534Z,95235.94
2017-09-28T08:11:10.290Z,95234.19
2017-09-28T08:13:38.019Z,95233.55
2017-09-28T08:16:05.767Z,95231.42
2017-09-28T08:18:33.548Z,95230.36
2017-09-28T08:21:01.313Z,95228.29
2017-09-28T08:23:29.489Z,95227.48
2017-09-28T08:25:57.285Z,95224.73
2017-09-28T08:28:25.766Z,95225.85
2017-09-28T08:30:54.059Z,95212.63
2017-09-28T08:33:21.971Z,95216.80
2017-09-28T08:35:49.787Z,95219.81
2017-09-28T08:38:17.544Z,95219.63
2017-09-28T08:40:45.261Z,95216.75
2017-09-28T08:43:12.974Z,95210.36
2017-09-28T08:45:40.699Z,95207.55
2017-09-28T08:48:08.465Z,95201.27
2017-09-28T08:50:36.159Z,95205.55
2017-09-28T08:53:04.510Z,95211.47
2017-09-28T08:55:32.251Z,95203.70
2017-09-28T08:57:59.984Z,95201.45
2017-09-28T09:00:27.814Z,95201.17
2017-09-28T09:02:55.469Z,95204.75
2017-09-28T09:05:23.230Z,95199.50
2017-09-28T09:07:50.898Z,95195.42
2017-09-28T09:10:18.578Z,95200.23
2017-09-28T09:12:46.361Z,95191.00
2017-09-28T09:15:14.062Z,95193.64
2017-09-28T09:17:41.772Z,95189.91
2017-09-28T09:20:09.515Z,95190.06
2017-09-28T09:22:37.895Z,95183.47
2017-09-28T09:25:05.655Z,95177.34
2017-09-28T09:27:33.355Z,95177.04
2017-09-28T09:30:01.081Z,95171.00
2017-09-28T09:32:28.855Z,95174.64
2017-09-28T09:34:56.686Z,95169.72
2017-09-28T09:37:24.394Z,95162.75
2017-09-28T09:39:52.188Z,95161.81
2017-09-28T09:42:19.941Z,95158.70
2017-09-28T09:44:47.664Z,95152.79
2017-09-28T09:47:15.436Z,95151.59
2017-09-28T09:49:43.210Z,95151.10
2017-09-28T09:52:10.898Z,95149.47
2017-09-28T09:54:38.727Z,95141.26
2017-09-28T09:57:07.092Z,95141.81
2017-09-28T09:59:34.803Z,95136.03
2017-09-28T10:02:02.731Z,95132.32
2017-09-28T10:04:31.190Z,95131.19
2017-09-28T10:07:01.611Z,95132.05
2017-09-28T10:09:31.917Z,95128.86
2017-09-28T10:12:02.826Z,95123.74
2017-09-28T10:14:33.819Z,95119.77
2017-09-28T10:17:01.681Z,95121.16
2017-09-28T10:19:29.440Z,95117.84
2017-09-28T10:21:57.255Z,95116.33
2017-09-28T10:24:24.985Z,95120.37
2017-09-28T10:26:52.788Z,95113.64
2017-09-28T10:29:20.596Z,95110.78
2017-09-28T10:31:49.337Z,95112.72
2017-09-28T10:34:17.080Z,95107.58
2017-09-28T10:36:44.836Z,95098.91
2017-09-28T10:39:12.566Z,95105.33
2017-09-28T10:41:40.267Z,95098.73
2017-09-28T10:44:08.023Z,95093.97
2017-09-28T10:46:35.748Z,95096.20
2017-09-28T10:49:03.479Z,95090.89
2017-09-28T10:51:31.255Z,95089.02
2017-09-28T10:53:59.309Z,95087.73
2017-09-28T10:56:27.146Z,95085.87
2017-09-28T10:58:54.850Z,95084.16
2017-09-28T11:01:22.604Z,95081.12
2017-09-28T11:03:50.458Z,95077.94
2017-09-28T11:06:18.393Z,95079.09
2017-09-28T11:08:46.448Z,95076.50
2017-09-28T11:11:14.311Z,95066.05
2017-09-28T11:13:42.232Z,95074.59
2017-09-28T11:16:10.653Z,95064.05
2017-09-28T11:18:38.423Z,95066.80
2017-09-28T11:21:06.174Z,95066.44
2017-09-28T11:23:33.989Z,95056.84
2017-09-28T11:26:01.729Z,95062.95
2017-09-28T11:28:29.436Z,95061.42
2017-09-28T11:30:57.188Z,95062.63
2017-09-28T11:33:24.952Z,95055.56
2017-09-28T11:35:52.698Z,95056.63
2017-09-28T11:38:20.448Z,95050.28
2017-09-28T11:40:48.247Z,95048.41
2017-09-28T11:43:15.956Z,95046.57
2017-09-28T11:45:43.701Z,95042.70
2017-09-28T11:48:11.377Z,95042.42
2017-09-28T11:50:39.162Z,95035.80
2017-09-28T11:53:06.882Z,95041.41
2017-09-28T11:55:34.622Z,95036.54
2017-09-28T11:58:02.896Z,95030.30
2017-09-28T12:00:30.621Z,95033.78
2017-09-28T12:02:58.367Z,95031.20
2017-09-28T12:05:26.161Z,95022.81
2017-09-28T12:07:53.911Z,95025.33
2017-09-28T12:10:21.622Z,95031.09
2017-09-28T12:12:49.389Z,95032.55
2017-09-28T12:15:17.080Z,95025.08
2017-09-28T12:17:44.792Z,95028.40
2017-09-28T12:20:12.590Z,95021.16
2017-09-28T12:22:40.297Z,95023.38
2017-09-28T12:25:08.004Z,95025.08
2017-09-28T12:27:35.807Z,95019.38
2017-09-28T12:30:03.510Z,95023.53
2017-09-28T12:32:31.227Z,95015.62
2017-09-28T12:34:59.052Z,95011.42
2017-09-28T12:37:26.745Z,95015.95
2017-09-28T12:39:54.480Z,95012.33
2017-09-28T12:42:22.280Z,95012.93
2017-09-28T12:44:50.028Z,95010.15
2017-09-28T12:47:17.784Z,95007.24
2017-09-28T12:49:45.532Z,95005.50
2017-09-28T12:52:13.227Z,95003.91
2017-09-28T12:54:41.321Z,95009.29
2017-09-28T12:57:09.043Z,94999.72
2017-09-28T12:59:36.753Z,94998.36
2017-09-28T13:02:04.471Z,94996.25
2017-09-28T13:04:32.184Z,95003.73
2017-09-28T13:07:00.251Z,94999.47
2017-09-28T13:09:27.997Z,94995.66
2017-09-28T13:11:56.775Z,94997.60
2017-09-28T13:14:24.523Z,95001.92
2017-09-28T13:16:52.230Z,94995.15
2017-09-28T13:19:20.086Z,94997.70
2017-09-28T13:21:48.073Z,94997.91
2017-09-28T13:24:15.766Z,94997.95
2017-09-28T13:26:43.437Z,94993.83
2017-09-28T13:29:11.876Z,95002.48
2017-09-28T13:31:39.607Z,95002.21
2017-09-28T13:34:07.305Z,94999.02
2017-09-28T13:36:35.097Z,94995.17
2017-09-28T13:39:02.960Z,94993.50
2017-09-28T13:41:30.701Z,95000.35
2017-09-28T13:43:58.457Z,94996.10
2017-09-28T13:46:26.204Z,94996.80
2017-09-28T13:48:54.026Z,95001.09
2017-09-28T13:51:21.756Z,95000.42
2017-09-28T13:53:49.485Z,95005.08
2017-09-28T13:56:17.288Z,95007.70
2017-09-28T13:58:45.051Z,95004.41
2017-09-28T14:01:12.826Z,94997.55
2017-09-28T14:03:40.587Z,94992.25
2017-09-28T14:06:08.403Z,94996.84
2017-09-28T14:08:36.262Z,94996.98
2017-09-28T14:11:04.014Z,94998.56
2017-09-28T14:13:31.804Z,94994.89
2017-09-28T14:15:59.588Z,94996.09
2017-09-28T14:18:27.485Z,94999.67
2017-09-28T14:20:55.288Z,95002.53
2017-09-28T14:23:23.020Z,94998.73
2017-09-28T14:25:50.750Z,95007.55
2017-09-28T14:28:18.846Z,95006.34
2017-09-28T14:30:46.665Z,95002.38
2017-09-28T14:33:14.432Z,95000.37
2017-09-28T14:35:42.754Z,95000.00
2017-09-28T14:38:10.644Z,94998.28
2017-09-28T14:40:38.367Z,95003.47
2017-09-28T14:43:06.986Z,95005.69
2017-09-28T14:45:34.717Z,95004.49
2017-09-28T14:48:02.715Z,95010.03
2017-09-28T14:50:31.617Z,95019.86
2017-09-28T14:52:59.312Z,95019.14
2017-09-28T14:55:27.350Z,95018.06
2017-09-28T14:57:56.124Z,95015.44
2017-09-28T15:00:23.966Z,95018.94
2017-09-28T15:02:51.756Z,95021.04
2017-09-28T15:05:19.612Z,95010.77
2017-09-28T15:07:47.385Z,95024.08
2017-09-28T15:10:15.164Z,95022.05
2017-09-28T15:12:42.864Z,95022.05
2017-09-28T15:15:11.135Z,95019.47
2017-09-28T15:17:38.879Z,95021.44
2017-09-28T15:20:06.689Z,95023.97
2017-09-28T15:22:34.461Z,95029.47
2017-09-28T15:25:02.207Z,95026.47
2017-09-28T15:27:30.034Z,95030.95
2017-09-28T15:29:57.890Z,95030.70
2017-09-28T15:32:25.667Z,95038.70
2017-09-28T15:34:53.434Z,95042.19
2017-09-28T15:37:21.306Z,95047.20
2017-09-28T15:39:49.135Z,95044.23
2017-09-28T15:42:16.948Z,95039.18
2017-09-28T15:44:44.717Z,95036.47
2017-09-28T15:47:12.627Z,95036.27
2017-09-28T15:49:40.352Z,95040.36
2017-09-28T15:52:08.192Z,95033.77
2017-09-28T15:54:35.909Z,95036.97
2017-09-28T15:57:03.621Z,95051.94
2017-09-28T15:59:31.465Z,95045.98
2017-09-28T16:01:59.215Z,95053.85
2017-09-28T16:04:26.940Z,95055.30
2017-09-28T16:06:54.776Z,95051.58
2017-09-28T16:09:22.594Z,95050.79
2017-09-28T16:11:50.390Z,95054.52
2017-09-28T16:14:18.973Z,95053.81
2017-09-28T16:16:46.668Z,95059.05
2017-09-28T16:19:14.481Z,95061.13
2017-09-28T16:21:42.253Z,95064.06
2017-09-28T16:24:09.952Z,95060.56
2017-09-28T16:26:37.640Z,95069.62
2017-09-28T16:29:05.513Z,95071.83
2017-09-28T16:31:33.305Z,95071.18
2017-09-28T16:34:01.676Z,95078.08
2017-09-28T16:36:29.558Z,95083.16
2017-09-28T16:38:57.317Z,95083.38
2017-09-28T16:41:26.137Z,95088.68
2017-09-28T16:43:53.941Z,95087.97
2017-09-28T16:46:21.754Z,95088.38
2017-09-28T16:48:49.583Z,95091.45
2017-09-28T16:51:17.330Z,95088.26
2017-09-28T16:53:45.155Z,95093.98
2017-09-28T16:56:14.039Z,95094.24
2017-09-28T16:58:41.856Z,95097.72
2017-09-28T17:01:09.680Z,95093.48
2017-09-28T17:03:37.424Z,95094.15
2017-09-28T17:06:05.828Z,95095.75
2017-09-28T17:08:33.676Z,95094.95
2017-09-28T17:11:01.560Z,95097.07
2017-09-28T17:13:29.455Z,95098.38
2017-09-28T17:15:57.233Z,95102.91
2017-09-28T17:18:24.998Z,95105.66
2017-09-28T17:20:52.790Z,95103.55
2017-09-28T17:23:20.644Z,95104.98
2017-09-28T17:25:48.455Z,95112.78
2017-09-28T17:28:16.203Z,95114.58
2017-09-28T17:30:45.109Z,95122.44
2017-09-28T17:33:12.927Z,95118.11
2017-09-28T17:35:40.622Z,95112.85
2017-09-28T17:38:08.354Z,95124.10
2017-09-28T17:40:36.205Z,95123.56
2017-09-28T17:43:03.982Z,95129.34
2017-09-28T17:45:31.866Z,95135.28
2017-09-28T17:47:59.964Z,95130.78
2017-09-28T17:50:27.754Z,95131.65
2017-09-28T17:52:55.606Z,95135.94
2017-09-28T17:55:24.323Z,95139.39
2017-09-28T17:57:52.186Z,95140.48
2017-09-28T18:00:20.153Z,95139.56
2017-09-28T18:02:47.917Z,95145.55
2017-09-28T18:05:15.641Z,95149.41
2017-09-28T18:07:43.572Z,95147.84
2017-09-28T18:10:11.341Z,95155.30
2017-09-28T18:12:39.235Z,95158.31
2017-09-28T18:15:08.077Z,95157.42
2017-09-28T18:17:35.979Z,95162.30
2017-09-28T18:20:04.329Z,95164.69
2017-09-28T18:22:32.102Z,95170.72
2017-09-28T18:24:59.906Z,95168.83
2017-09-28T18:27:27.738Z,95169.36
2017-09-28T18:29:55.772Z,95172.96
2017-09-28T18:32:23.660Z,95171.63
2017-09-28T18:34:51.507Z,95170.92
2017-09-28T18:37:19.253Z,95170.39
2017-09-28T18:39:46.957Z,95172.52
2017-09-28T18:42:14.784Z,95172.65
2017-09-28T18:44:42.864Z,95174.95
2017-09-28T18:47:10.683Z,95172.69
2017-09-28T18:49:38.466Z,95173.43
2017-09-28T18:52:06.204Z,95179.48
2017-09-28T18:54:33.990Z,95179.61
2017-09-28T18:57:02.710Z,95179.22
2017-09-28T18:59:30.542Z,95180.83
2017-09-28T19:01:58.229Z,95185.38
2017-09-28T19:04:26.070Z,95177.42
2017-09-28T19:06:53.960Z,95179.88
2017-09-28T19:09:21.788Z,95187.73
2017-09-28T19:11:49.736Z,95181.35
2017-09-28T19:14:17.553Z,95183.97
2017-09-28T19:16:45.303Z,95182.98
2017-09-28T19:19:13.114Z,95184.85
2017-09-28T19:21:40.975Z,95187.38
2017-09-28T19:24:08.691Z,95195.43
2017-09-28T19:26:36.475Z,95194.83
2017-09-28T19:29:04.321Z,95199.41
2017-09-28T19:31:32.135Z,95190.63
2017-09-28T19:34:00.220Z,95194.62
2017-09-28T19:36:28.550Z,95190.60
2017-09-28T19:38:56.576Z,95195.50
2017-09-28T19:41:24.330Z,95195.09
2017-09-28T19:43:53.067Z,95201.20
2017-09-28T19:46:21.550Z,95196.08
2017-09-28T19:48:49.290Z,95203.59
2017-09-28T19:51:18.075Z,95198.98
2017-09-28T19:53:45.874Z,95199.00
2017-09-28T19:56:13.735Z,95200.48
2017-09-28T19:58:41.724Z,95198.80
2017-09-28T20:01:09.540Z,95197.59
2017-09-28T20:03:37.317Z,95194.18
2017-09-28T20:06:05.197Z,95200.92
2017-09-28T20:08:33.387Z,95198.20
2017-09-28T20:11:02.260Z,95198.34
2017-09-28T20:13:30.040Z,95195.95
2017-09-28T20:15:57.844Z,95200.76
2017-09-28T20:18:25.678Z,95199.16
2017-09-28T20:20:53.985Z,95197.25
2017-09-28T20:23:21.957Z,95192.25
2017-09-28T20:25:50.231Z,95198.36
2017-09-28T20:28:17.981Z,95198.21
2017-09-28T20:30:45.845Z,95194.91
2017-09-28T20:33:13.626Z,95201.41
2017-09-28T20:35:41.412Z,95203.92
2017-09-28T20:38:09.330Z,95198.20
2017-09-28T20:40:37.177Z,95199.41
2017-09-28T20:43:04.964Z,95199.22
2017-09-28T20:45:32.700Z,95209.07
2017-09-28T20:48:00.537Z,95205.16
2017-09-28T20:50:28.419Z,95204.96
2017-09-28T20:52:56.376Z,95198.78
2017-09-28T20:55:24.183Z,95199.58
2017-09-28T20:57:51.958Z,95205.38
2017-09-28T21:00:19.934Z,95204.96
2017-09-28T21:02:47.798Z,95209.09
2017-09-28T21:05:15.869Z,95208.99
2017-09-28T21:07:43.708Z,95202.38
2017-09-28T21:10:11.598Z,95199.17
2017-09-28T21:12:39.317Z,95200.99
2017-09-28T21:15:07.175Z,95205.30
2017-09-28T21:17:34.925Z,95206.38
2017-09-28T21:20:02.661Z,95208.11
2017-09-28T21:22:30.428Z,95203.70
2017-09-28T21:24:58.134Z,95199.55
2017-09-28T21:27:26.020Z,95201.39
2017-09-28T21:29:55.140Z,95199.17
2017-09-28T21:32:22.857Z,95200.27
2017-09-28T21:34:50.664Z,95198.65
2017-09-28T21:37:18.376Z,95200.64
2017-09-28T21:39:46.284Z,95200.95
2017-09-28T21:42:14.123Z,95195.66
2017-09-28T21:44:41.890Z,95190.83
2017-09-28T21:47:09.673Z,95195.66
2017-09-28T21:49:37.379Z,95192.75
2017-09-28T21:52:05.099Z,95191.77
2017-09-28T21:54:33.721Z,95191.00
2017-09-28T21:57:01.592Z,95194.11
2017-09-28T21:59:29.454Z,95195.43
2017-09-28T22:01:57.931Z,95191.77
2017-09-28T22:04:25.674Z,95181.88
2017-09-28T22:06:53.541Z,95184.05
2017-09-28T22:09:21.579Z,95185.93
2017-09-28T22:11:49.331Z,95182.17
2017-09-28T22:14:17.346Z,95180.88
2017-09-28T22:16:45.086Z,95184.48
2017-09-28T22:19:12.814Z,95181.63
2017-09-28T22:21:40.683Z,95182.27
2017-09-28T22:24:08.499Z,95181.58
2017-09-28T22:26:36.486Z,95179.88
2017-09-28T22:29:04.298Z,95177.20
2017-09-28T22:31:32.030Z,95176.32
2017-09-28T22:33:59.808Z,95171.44
2017-09-28T22:36:27.506Z,95172.50
2017-09-28T22:38:55.211Z,95173.91
2017-09-28T22:41:23.040Z,95172.25
2017-09-28T22:43:50.974Z,95171.77
2017-09-28T22:46:18.747Z,95168.45
2017-09-28T22:48:46.473Z,95165.96
2017-09-28T22:51:14.212Z,95175.53
2017-09-28T22:53:42.102Z,95165.65
2017-09-28T22:56:09.846Z,95170.14
2017-09-28T22:58:37.619Z,95164.33
2017-09-28T23:01:05.414Z,95167.83
2017-09-28T23:03:33.164Z,95168.80
2017-09-28T23:06:00.925Z,95167.63
2017-09-28T23:08:28.711Z,95165.97
2017-09-28T23:10:56.456Z,95164.39
2017-09-28T23:13:24.220Z,95159.14
2017-09-28T23:15:51.897Z,95163.66
2017-09-28T23:18:19.637Z,95164.08
2017-09-28T23:20:47.362Z,95164.72
2017-09-28T23:23:15.111Z,95162.68
2017-09-28T23:25:42.937Z,95166.95
2017-09-28T23:28:10.674Z,95164.52
2017-09-28T23:30:38.394Z,95172.36
2017-09-28T23:33:06.186Z,95162.47
2017-09-28T23:35:33.968Z,95164.00
2017-09-28T23:38:01.728Z,95163.39
2017-09-28T23:40:29.427Z,95165.36
2017-09-28T23:42:57.182Z,95164.50
2017-09-28T23:45:24.885Z,95161.88
2017-09-28T23:47:52.632Z,95158.67
2017-09-28T23:50:20.399Z,95159.47
2017-09-28T23:52:48.087Z,95167.54
2017-09-28T23:55:15.852Z,95161.73
2017-09-28T23:57:43.589Z,95165.25
